Time;durP1;ratioP1;P1;durP2;ratioP2;P2;SDS_P1;SDS_P2;PMS_P1;PMS_P2;Temp;Humidity;BMP_temperature;BMP_pressure;BME280_temperature;BME280_humidity;BME280_pressure;Samples;Min_cycle;Max_cycle;Signal;HPM_P1;HPM_P2
2022/12/11 00:00:47;;;;;;;22.13;12.13;;;;;;;-5.28;100.00;96629.81;5025064;28;20449;-61
2022/12/11 00:03:15;;;;;;;20.40;11.52;;;;;;;-5.25;100.00;96634.75;5040722;28;20049;-63
2022/12/11 00:05:43;;;;;;;22.10;11.23;;;;;;;-5.37;100.00;96632.50;5044367;28;20444;-62
2022/12/11 00:08:10;;;;;;;23.85;10.90;;;;;;;-5.26;100.00;96633.13;5045541;28;20056;-62
2022/12/11 00:10:37;;;;;;;21.42;11.18;;;;;;;-5.10;100.00;96632.22;5051458;28;20052;-61
2022/12/11 00:13:04;;;;;;;21.42;10.25;;;;;;;-5.07;100.00;96631.91;5028306;28;20123;-62
2022/12/11 00:15:30;;;;;;;19.50;9.65;;;;;;;-5.13;100.00;96630.75;5028358;28;20338;-63
2022/12/11 00:17:57;;;;;;;19.90;10.50;;;;;;;-5.12;100.00;96634.22;5028682;28;20042;-62
2022/12/11 00:20:23;;;;;;;18.60;10.18;;;;;;;-5.02;100.00;96634.84;5046645;28;20049;-62
2022/12/11 00:22:50;;;;;;;18.75;9.73;;;;;;;-5.03;100.00;96629.72;5047829;28;20450;-62
2022/12/11 00:25:16;;;;;;;23.35;11.35;;;;;;;-5.03;100.00;96630.56;5032826;28;20319;-62
2022/12/11 00:27:45;;;;;;;20.10;11.68;;;;;;;-5.01;100.00;96630.41;5068120;28;20070;-62
2022/12/11 00:30:12;;;;;;;19.38;10.77;;;;;;;-4.89;100.00;96625.53;5066848;28;20128;-62
2022/12/11 00:32:39;;;;;;;21.20;10.88;;;;;;;-4.85;100.00;96625.03;5048032;28;20321;-62
2022/12/11 00:35:06;;;;;;;22.58;10.85;;;;;;;-4.83;100.00;96623.03;5048119;28;20116;-61
2022/12/11 00:37:32;;;;;;;23.67;10.95;;;;;;;-4.93;100.00;96624.25;5048317;28;20041;-61
2022/12/11 00:39:59;;;;;;;22.70;11.80;;;;;;;-4.94;100.00;96630.53;5048242;28;20049;-61
2022/12/11 00:42:25;;;;;;;21.92;10.73;;;;;;;-5.00;100.00;96619.66;5040476;28;20054;-61
2022/12/11 00:44:53;;;;;;;20.17;10.98;;;;;;;-4.97;100.00;96621.13;5027976;28;20041;-61
2022/12/11 00:47:20;;;;;;;18.90;10.27;;;;;;;-5.07;100.00;96629.25;5028282;28;20067;-62
2022/12/11 00:49:46;;;;;;;20.88;10.23;;;;;;;-5.28;100.00;96627.16;5044302;28;20470;-61
2022/12/11 00:52:16;;;;;;;22.58;10.82;;;;;;;-5.26;100.00;96627.84;5047504;28;20123;-62
2022/12/11 00:54:43;;;;;;;24.20;10.80;;;;;;;-5.27;100.00;96623.56;5031210;28;20527;-63
2022/12/11 00:57:09;;;;;;;21.83;10.70;;;;;;;-5.32;100.00;96625.88;5041323;28;20131;-62
2022/12/11 00:59:36;;;;;;;18.58;9.65;;;;;;;-5.15;100.00;96629.28;5047800;28;20534;-60
2022/12/11 01:02:02;;;;;;;21.45;11.65;;;;;;;-5.23;100.00;96630.94;5039198;28;20046;-62
2022/12/11 01:04:29;;;;;;;22.55;11.50;;;;;;;-5.15;100.00;96640.69;5034237;28;20591;-62
2022/12/11 01:06:55;;;;;;;21.67;11.57;;;;;;;-5.19;100.00;96642.00;5047355;28;20040;-62
2022/12/11 01:12:07;;;;;;;22.40;10.38;;;;;;;-4.77;100.00;96642.66;5046766;28;20056;-61
2022/12/11 01:14:33;;;;;;;23.27;11.88;;;;;;;-4.71;100.00;96647.25;5034658;28;20041;-63
2022/12/11 01:17:00;;;;;;;23.15;12.10;;;;;;;-4.67;100.00;96649.53;5042063;28;20049;-62
2022/12/11 01:19:27;;;;;;;24.55;11.00;;;;;;;-4.75;100.00;96651.22;5041425;28;20071;-62
2022/12/11 01:21:53;;;;;;;21.38;11.43;;;;;;;-4.93;100.00;96662.06;5047091;28;20272;-61
2022/12/11 01:24:20;;;;;;;21.60;11.88;;;;;;;-4.86;100.00;96665.63;5055939;28;20102;-62
2022/12/11 01:26:46;;;;;;;22.83;10.88;;;;;;;-4.48;100.00;96656.22;5048169;28;20072;-62
2022/12/11 01:29:14;;;;;;;21.92;11.55;;;;;;;-4.47;100.00;96660.50;5035764;28;20149;-62
2022/12/11 01:31:40;;;;;;;21.73;11.73;;;;;;;-4.60;100.00;96669.81;5026879;28;20041;-61
2022/12/11 01:34:07;;;;;;;23.23;11.73;;;;;;;-4.59;100.00;96665.34;5027428;28;20107;-63
2022/12/11 01:36:33;;;;;;;20.65;11.73;;;;;;;-4.64;100.00;96673.78;5043269;28;20056;-61
2022/12/11 01:38:59;;;;;;;21.85;11.38;;;;;;;-4.74;100.00;96673.19;5047426;28;20033;-61
2022/12/11 01:41:26;;;;;;;19.70;10.73;;;;;;;-4.81;100.00;96662.50;5047150;28;20540;-62
2022/12/11 01:44:26;;;;;;;21.35;11.98;;;;;;;-4.78;100.00;96666.59;5047036;28;20461;-62
2022/12/11 01:46:53;;;;;;;21.13;10.88;;;;;;;-4.87;100.00;96674.56;5047162;28;20128;-61
2022/12/11 01:49:24;;;;;;;18.17;10.20;;;;;;;-4.90;100.00;96680.16;5047080;28;20327;-62
2022/12/11 01:51:51;;;;;;;;;;;;;;;-4.77;100.00;96670.88;5047196;28;20080;-61
2022/12/11 01:54:20;;;;;;;23.88;11.05;;;;;;;-4.72;100.00;96687.06;5054534;28;19959;-62
2022/12/11 01:56:50;;;;;;;17.50;10.93;;;;;;;-4.65;100.00;96681.91;5032689;28;20052;-61
2022/12/11 01:59:23;;;;;;;22.38;11.60;;;;;;;-4.65;100.00;96677.44;5025787;28;20053;-61
2022/12/11 02:02:05;;;;;;;21.52;11.40;;;;;;;-4.41;100.00;96688.88;5047361;28;20072;-62
2022/12/11 02:04:33;;;;;;;;;;;;;;;-4.43;100.00;96680.28;5042751;28;20419;-61
2022/12/11 02:07:00;;;;;;;20.95;10.18;;;;;;;-4.40;100.00;96687.88;5026401;28;19964;-62
2022/12/11 02:09:32;;;;;;;23.65;11.15;;;;;;;-4.18;100.00;96681.00;5035093;28;21185;-61
2022/12/11 02:12:07;;;;;;;19.17;10.38;;;;;;;-4.22;100.00;96678.84;5039550;28;20542;-61
2022/12/11 02:14:54;;;;;;;21.25;11.63;;;;;;;-4.32;100.00;96674.63;5042019;28;20118;-61
2022/12/11 02:17:37;;;;;;;19.70;9.80;;;;;;;-4.37;100.00;96679.63;5029118;28;20041;-61
2022/12/11 02:20:15;;;;;;;17.90;9.00;;;;;;;-4.48;100.00;96672.91;5042330;28;20036;-63
2022/12/11 02:23:04;;;;;;;16.70;9.13;;;;;;;-4.61;100.00;96677.94;5026480;28;20448;-63
2022/12/11 02:25:43;;;;;;;18.58;10.18;;;;;;;-4.74;100.00;96683.75;5043539;28;20044;-61
2022/12/11 02:28:31;;;;;;;21.65;10.57;;;;;;;-4.60;100.00;96675.09;5066431;28;20131;-61
2022/12/11 02:31:26;;;;;;;20.20;12.25;;;;;;;-4.60;100.00;96672.44;5065702;28;20051;-62
2022/12/11 02:34:05;;;;;;;19.55;10.45;;;;;;;-4.83;100.00;96678.50;5055965;28;20143;-60
2022/12/11 02:36:36;;;;;;;20.10;10.75;;;;;;;-5.00;100.00;96675.13;5029756;28;20045;-61
2022/12/11 02:39:04;;;;;;;;;;;;;;;-5.07;100.00;96668.84;5026476;28;20292;-61
2022/12/11 02:41:32;;;;;;;16.92;9.77;;;;;;;-5.26;100.00;96670.91;5026022;28;19928;-62
2022/12/11 02:44:01;;;;;;;20.88;10.57;;;;;;;-5.40;100.00;96680.31;5026223;28;20049;-63
2022/12/11 02:46:30;;;;;;;17.65;9.30;;;;;;;-5.36;100.00;96678.16;5025558;28;20091;-62
2022/12/11 02:48:57;;;;;;;20.98;10.48;;;;;;;-5.32;100.00;96674.19;5034904;28;20488;-62
2022/12/11 02:51:30;;;;;;;19.13;9.98;;;;;;;-5.35;100.00;96675.34;5045834;28;20065;-62
2022/12/11 02:53:58;;;;;;;19.55;10.00;;;;;;;-5.18;100.00;96680.59;5046196;28;20075;-63
2022/12/11 02:56:49;;;;;;;18.42;10.95;;;;;;;-5.10;100.00;96670.03;5045914;28;20049;-62
2022/12/11 02:59:25;;;;;;;18.60;10.38;;;;;;;-5.06;100.00;96670.50;5045660;28;20474;-61
2022/12/11 03:01:51;;;;;;;18.77;9.85;;;;;;;-5.09;100.00;96678.75;5044227;28;20087;-62
2022/12/11 03:04:18;;;;;;;17.88;9.45;;;;;;;-4.97;100.00;96685.31;5043074;28;20601;-60
2022/12/11 03:06:53;;;;;;;22.92;12.00;;;;;;;-4.75;100.00;96672.34;5046315;28;20053;-62
2022/12/11 03:09:20;;;;;;;23.73;11.77;;;;;;;-4.65;100.00;96669.50;5047440;28;20098;-61
2022/12/11 03:11:46;;;;;;;19.80;10.40;;;;;;;-4.59;100.00;96660.06;5050442;28;20520;-61
2022/12/11 03:14:13;;;;;;;19.10;10.90;;;;;;;-4.77;100.00;96669.06;5045983;28;20076;-62
2022/12/11 03:17:13;;;;;;;21.58;10.88;;;;;;;-4.80;100.00;96663.31;5043119;28;20531;-61
2022/12/11 03:19:42;;;;;;;18.60;9.13;;;;;;;-4.74;100.00;96665.25;5038011;28;20041;-62
2022/12/11 03:22:21;;;;;;;20.90;10.07;;;;;;;-4.67;100.00;96668.88;5042965;28;20049;-62
2022/12/11 03:25:00;;;;;;;19.98;10.45;;;;;;;-4.55;100.00;96669.31;5032350;28;20046;-62
2022/12/11 03:27:35;;;;;;;19.15;10.32;;;;;;;-4.54;100.00;96675.41;5042819;28;20540;-61
2022/12/11 03:30:15;;;;;;;19.08;9.57;;;;;;;-4.52;100.00;96668.13;5045154;28;20045;-61
2022/12/11 03:32:52;;;;;;;18.52;9.93;;;;;;;-4.48;100.00;96664.16;5045127;28;20136;-62
2022/12/11 03:35:32;;;;;;;17.58;9.10;;;;;;;-4.08;100.00;96667.53;5045416;28;20049;-61
2022/12/11 03:38:05;;;;;;;20.05;10.05;;;;;;;-3.97;100.00;96662.81;5045565;28;20128;-62
2022/12/11 03:40:34;;;;;;;19.80;9.82;;;;;;;-3.79;100.00;96663.34;5045186;28;20112;-62
2022/12/11 03:43:03;;;;;;;16.30;8.55;;;;;;;-3.83;100.00;96666.53;5045300;28;20542;-63
2022/12/11 03:45:32;;;;;;;18.98;9.27;;;;;;;-3.94;100.00;96665.94;5045069;28;20098;-62
2022/12/11 03:48:01;;;;;;;18.50;10.18;;;;;;;-4.01;100.00;96670.31;5034923;28;20225;-61
2022/12/11 03:50:31;;;;;;;19.73;10.32;;;;;;;-4.03;100.00;96663.53;5046508;28;20383;-62
2022/12/11 03:52:59;;;;;;;19.15;9.50;;;;;;;-3.97;100.00;96662.81;5047474;28;20128;-61
2022/12/11 03:55:28;;;;;;;18.23;9.30;;;;;;;-3.90;100.00;96663.78;5048732;28;20568;-61
2022/12/11 03:57:54;;;;;;;17.85;9.93;;;;;;;-3.87;100.00;96660.75;5048591;28;20033;-63
2022/12/11 04:00:22;;;;;;;15.48;8.32;;;;;;;-3.81;100.00;96668.00;5048860;28;20090;-62
2022/12/11 04:03:11;;;;;;;18.70;9.60;;;;;;;-3.89;100.00;96661.94;5048875;28;20250;-62
2022/12/11 04:05:40;;;;;;;17.35;8.50;;;;;;;-3.57;100.00;96660.81;5049054;28;20256;-62
2022/12/11 04:08:07;;;;;;;16.88;9.68;;;;;;;-3.64;100.00;96657.28;5048763;28;20106;-61
2022/12/11 04:10:34;;;;;;;19.23;10.13;;;;;;;-3.95;100.00;96645.78;5056139;28;20041;-61
2022/12/11 04:13:00;;;;;;;18.60;10.00;;;;;;;-4.05;100.00;96648.66;5049063;28;20186;-62
2022/12/11 04:15:27;;;;;;;21.95;11.88;;;;;;;-4.13;100.00;96647.91;5048450;28;20074;-62
2022/12/11 04:26:14;;;;;;;17.60;9.40;;;;;;;-4.12;100.00;96631.88;5048153;28;20044;-61
2022/12/11 04:28:42;;;;;;;16.25;8.88;;;;;;;-4.13;100.00;96630.22;5048205;28;20116;-61
2022/12/11 04:31:17;;;;;;;18.13;9.35;;;;;;;-4.07;100.00;96626.88;5048122;28;20124;-61
2022/12/11 04:33:44;;;;;;;20.58;11.18;;;;;;;-4.14;100.00;96623.28;5049053;28;20037;-61
2022/12/11 04:36:11;;;;;;;19.52;9.88;;;;;;;-4.12;100.00;96623.09;5048924;28;20102;-61
2022/12/11 04:38:38;;;;;;;19.08;10.45;;;;;;;-4.13;100.00;96626.75;5048359;28;20116;-61
2022/12/11 04:41:13;;;;;;;16.35;9.27;;;;;;;-4.00;100.00;96626.97;5048276;28;20140;-62
2022/12/11 04:43:39;;;;;;;18.45;9.73;;;;;;;-3.94;100.00;96630.75;5048535;28;20040;-62
2022/12/11 04:46:07;;;;;;;18.83;10.00;;;;;;;-3.94;100.00;96622.81;5048244;28;20102;-62
2022/12/11 04:48:34;;;;;;;17.05;9.13;;;;;;;-3.97;100.00;96625.81;5033350;28;20412;-62
2022/12/11 04:51:00;;;;;;;19.20;10.05;;;;;;;-3.97;100.00;96615.22;5047722;28;20115;-62
2022/12/11 04:53:27;;;;;;;19.17;10.90;;;;;;;-4.03;100.00;96622.03;5048413;28;20482;-61
2022/12/11 04:55:54;;;;;;;15.88;8.07;;;;;;;-3.90;100.00;96624.09;5047702;28;20072;-61
2022/12/11 04:58:21;;;;;;;21.08;9.32;;;;;;;-3.77;100.00;96620.03;5046979;28;20467;-60
2022/12/11 05:00:48;;;;;;;16.30;9.43;;;;;;;-3.71;100.00;96611.34;5047713;28;20045;-61
2022/12/11 05:03:15;;;;;;;21.02;10.30;;;;;;;-3.81;100.00;96614.25;5048272;28;20041;-61
2022/12/11 05:05:50;;;;;;;16.08;9.80;;;;;;;-3.92;100.00;96615.50;5048533;28;20051;-61
2022/12/11 05:08:20;;;;;;;16.30;9.52;;;;;;;-3.93;100.00;96613.88;5047378;28;20084;-63
2022/12/11 05:10:58;;;;;;;20.52;9.82;;;;;;;-3.81;100.00;96616.91;5055101;28;20048;-61
2022/12/11 05:13:26;;;;;;;19.20;9.25;;;;;;;-3.98;100.00;96624.16;5048186;28;20128;-62
2022/12/11 05:15:52;;;;;;;16.60;8.63;;;;;;;-3.99;100.00;96627.81;5048123;28;20419;-62
2022/12/11 05:18:19;;;;;;;18.13;9.95;;;;;;;-3.78;100.00;96627.13;5031978;28;20045;-63
2022/12/11 05:20:54;;;;;;;16.20;9.38;;;;;;;-3.71;100.00;96629.88;5048179;28;20472;-63
2022/12/11 05:23:21;;;;;;;18.52;9.25;;;;;;;-3.62;100.00;96626.16;5047894;28;20041;-62
2022/12/11 05:26:00;;;;;;;17.98;9.00;;;;;;;-3.48;100.00;96632.47;5047969;28;20111;-62
2022/12/11 05:28:29;;;;;;;18.67;9.30;;;;;;;-3.48;100.00;96613.09;5047930;28;20040;-63
2022/12/11 05:31:00;;;;;;;19.83;9.25;;;;;;;-3.54;100.00;96618.13;5047340;28;20037;-63
2022/12/11 05:33:28;;;;;;;16.75;8.23;;;;;;;-3.55;100.00;96618.31;5047848;28;20475;-62
2022/12/11 05:35:55;;;;;;;19.10;9.15;;;;;;;-3.59;100.00;96615.22;5047700;28;20497;-62
2022/12/11 05:38:22;;;;;;;15.65;8.10;;;;;;;-3.62;100.00;96625.34;5047523;28;20052;-62
2022/12/11 05:40:57;;;;;;;18.38;8.98;;;;;;;-3.92;100.00;96636.66;5047477;28;20504;-62
2022/12/11 05:43:26;;;;;;;19.10;8.27;;;;;;;-3.92;100.00;96629.56;5047299;28;20060;-62
2022/12/11 05:45:53;;;;;;;16.20;8.20;;;;;;;-3.89;100.00;96627.53;5047245;28;20349;-63
2022/12/11 05:48:19;;;;;;;15.23;9.32;;;;;;;-3.94;100.00;96623.63;5040370;28;20052;-62
2022/12/11 05:50:59;;;;;;;17.95;8.48;;;;;;;-4.19;100.00;96615.06;5028263;28;20444;-62
2022/12/11 05:53:27;;;;;;;21.42;9.60;;;;;;;-4.12;100.00;96612.53;5027052;28;20140;-63
2022/12/11 05:55:54;;;;;;;19.17;9.13;;;;;;;-4.32;100.00;96613.81;5027348;28;20579;-62
2022/12/11 05:58:20;;;;;;;21.70;10.50;;;;;;;-4.14;100.00;96611.88;5026805;28;20147;-62
2022/12/11 06:00:47;;;;;;;19.20;10.88;;;;;;;-4.77;100.00;96615.41;5026609;28;20068;-60
2022/12/11 06:03:14;;;;;;;14.48;8.32;;;;;;;-5.04;100.00;96614.88;5026916;28;20045;-61
2022/12/11 06:05:42;;;;;;;17.88;9.55;;;;;;;-5.23;100.00;96616.94;5031647;28;20054;-63
2022/12/11 06:08:08;;;;;;;19.00;9.10;;;;;;;-5.23;100.00;96622.22;5031494;28;20092;-63
2022/12/11 06:10:35;;;;;;;20.10;9.57;;;;;;;-5.36;100.00;96617.47;5048157;28;20052;-61
2022/12/11 06:13:02;;;;;;;20.00;9.48;;;;;;;-5.39;100.00;96617.81;5047251;28;20569;-61
2022/12/11 06:15:28;;;;;;;19.83;10.85;;;;;;;-5.70;100.00;96616.72;5046408;28;20132;-62
2022/12/11 06:17:55;;;;;;;18.58;8.27;;;;;;;-5.80;100.00;96605.53;5046234;28;20052;-62
2022/12/11 06:20:21;;;;;;;22.38;10.88;;;;;;;-5.60;100.00;96606.00;5030169;28;20844;-58
2022/12/11 06:22:48;;;;;;;25.65;10.15;;;;;;;-5.50;100.00;96597.88;5033339;28;20090;-57
2022/12/11 06:25:14;;;;;;;22.88;11.55;;;;;;;-5.54;100.00;96609.75;5041540;28;20036;-58
2022/12/11 06:27:40;;;;;;;23.85;12.18;;;;;;;-5.36;100.00;96599.84;5037163;28;20062;-55
2022/12/11 06:30:07;;;;;;;21.63;11.32;;;;;;;-5.14;100.00;96599.25;5031557;28;20045;-57
2022/12/11 06:32:34;;;;;;;22.42;11.32;;;;;;;-5.17;100.00;96600.41;5027629;28;20044;-57
2022/12/11 06:35:00;;;;;;;28.02;12.90;;;;;;;-5.01;100.00;96598.72;5049745;28;20048;-58
2022/12/11 06:37:27;;;;;;;29.52;12.65;;;;;;;-4.94;100.00;96591.72;5052024;28;20137;-59
2022/12/11 06:39:53;;;;;;;25.58;12.80;;;;;;;-4.90;100.00;96606.22;5050487;28;20082;-59
2022/12/11 06:42:20;;;;;;;25.45;12.80;;;;;;;-4.86;100.00;96610.16;5044647;28;20044;-57
2022/12/11 06:44:46;;;;;;;29.08;14.38;;;;;;;-4.60;100.00;96606.41;5044556;28;20114;-57
2022/12/11 06:47:13;;;;;;;30.17;15.52;;;;;;;-4.44;100.00;96610.78;5044320;28;20052;-58
2022/12/11 06:49:39;;;;;;;32.42;14.27;;;;;;;-4.22;100.00;96612.75;5045093;28;20755;-59
2022/12/11 06:52:06;;;;;;;46.67;17.75;;;;;;;-4.22;100.00;96612.75;5043743;28;20458;-58
2022/12/11 06:54:32;;;;;;;39.60;17.10;;;;;;;-4.26;100.00;96614.13;5057058;28;20431;-58
2022/12/11 06:56:59;;;;;;;39.03;17.33;;;;;;;-4.22;100.00;96612.75;5042043;28;20049;-58
2022/12/11 06:59:25;;;;;;;36.38;16.40;;;;;;;-4.18;100.00;96614.06;5050090;28;20423;-59
2022/12/11 07:01:51;;;;;;;40.03;17.98;;;;;;;-4.38;100.00;96608.44;5049792;28;20053;-59
2022/12/11 07:04:18;;;;;;;39.00;16.88;;;;;;;-4.12;100.00;96629.22;5044194;28;20419;-59
2022/12/11 07:06:46;;;;;;;37.25;18.27;;;;;;;-4.44;100.00;96628.44;5043977;28;20045;-57
2022/12/11 07:09:12;;;;;;;32.00;15.18;;;;;;;-4.53;100.00;96632.97;5044801;28;20045;-58
2022/12/11 07:11:39;;;;;;;29.38;14.80;;;;;;;-4.48;100.00;96624.50;5048644;28;20156;-57
2022/12/11 07:14:05;;;;;;;38.58;16.83;;;;;;;-4.46;100.00;96633.09;5043989;28;20135;-58
2022/12/11 07:16:32;;;;;;;33.72;15.85;;;;;;;-4.25;100.00;96628.97;5043845;28;20037;-59
2022/12/11 07:18:59;;;;;;;34.28;15.82;;;;;;;-4.36;100.00;96627.56;5045113;28;20127;-59
2022/12/11 07:21:25;;;;;;;34.92;14.90;;;;;;;-4.29;100.00;96625.88;5043540;28;20053;-59
2022/12/11 07:23:52;;;;;;;37.05;16.08;;;;;;;-4.52;100.00;96631.13;5048158;28;20041;-58
2022/12/11 07:26:20;;;;;;;33.67;14.73;;;;;;;-4.45;100.00;96630.25;5048143;28;20550;-60
2022/12/11 07:28:47;;;;;;;40.00;17.08;;;;;;;-4.38;100.00;96621.63;5047642;28;20040;-60
2022/12/11 07:31:20;;;;;;;39.25;16.80;;;;;;;-4.37;100.00;96620.63;5045958;28;20116;-56
2022/12/11 07:33:51;;;;;;;36.83;16.85;;;;;;;-4.33;100.00;96627.22;5042077;28;20067;-59
2022/12/11 07:36:17;;;;;;;31.13;15.88;;;;;;;-4.31;100.00;96618.09;5044810;28;20155;-59
2022/12/11 07:38:44;;;;;;;34.75;16.15;;;;;;;-4.40;100.00;96632.38;5054690;28;20052;-59
2022/12/11 07:41:12;;;;;;;33.13;15.88;;;;;;;-4.54;100.00;96626.03;5049264;28;20154;-57
2022/12/11 07:43:40;;;;;;;35.25;18.55;;;;;;;-4.46;100.00;96627.81;5045911;28;20048;-57
2022/12/11 07:46:13;;;;;;;41.72;18.38;;;;;;;-4.50;100.00;96623.88;5049147;28;20059;-59
2022/12/11 07:48:41;;;;;;;36.33;16.70;;;;;;;-4.49;100.00;96623.66;5055446;28;20048;-55
2022/12/11 07:51:32;;;;;;;38.97;18.55;;;;;;;-4.51;100.00;96627.50;5046841;28;20447;-55
2022/12/11 07:54:02;;;;;;;35.78;16.40;;;;;;;-4.58;100.00;96622.91;5046742;28;20132;-59
2022/12/11 07:56:29;;;;;;;32.30;17.05;;;;;;;-4.64;100.00;96620.94;5048360;28;20420;-58
2022/12/11 07:58:59;;;;;;;31.30;16.00;;;;;;;-4.78;100.00;96626.97;5049321;28;20069;-58
2022/12/11 08:01:27;;;;;;;33.53;16.67;;;;;;;-4.78;100.00;96617.25;5049031;28;20049;-57
2022/12/11 08:03:54;;;;;;;31.58;15.77;;;;;;;-4.85;100.00;96621.56;5048920;28;20461;-59
2022/12/11 08:06:27;;;;;;;36.38;16.50;;;;;;;-4.76;100.00;96622.38;5048810;28;20048;-58
2022/12/11 08:08:54;;;;;;;39.75;16.10;;;;;;;-4.68;100.00;96622.31;5043637;28;20151;-59
2022/12/11 08:11:21;;;;;;;30.83;14.13;;;;;;;-4.47;100.00;96626.13;5044599;28;20037;-58
2022/12/11 08:13:48;;;;;;;34.72;15.52;;;;;;;-4.57;100.00;96632.47;5047523;28;20049;-59
2022/12/11 08:16:16;;;;;;;33.88;15.43;;;;;;;-4.62;100.00;96626.91;5051718;28;20071;-58
2022/12/11 08:18:44;;;;;;;29.52;14.20;;;;;;;-4.81;100.00;96624.69;5055729;28;20044;-59
2022/12/11 08:21:17;;;;;;;32.67;15.10;;;;;;;-4.87;100.00;96626.22;5046367;28;20537;-58
2022/12/11 08:23:44;;;;;;;34.80;16.48;;;;;;;-4.78;100.00;96625.16;5043823;28;20049;-58
2022/12/11 08:26:13;;;;;;;32.63;16.13;;;;;;;-4.83;100.00;96625.69;5035671;28;20544;-58
2022/12/11 08:28:40;;;;;;;40.90;17.90;;;;;;;-4.94;100.00;96623.41;5038394;28;20072;-59
2022/12/11 08:31:09;;;;;;;37.85;17.10;;;;;;;-4.89;100.00;96629.03;5037388;28;20112;-57
2022/12/11 08:33:37;;;;;;;37.53;17.08;;;;;;;-4.48;100.00;96627.97;5036759;28;20329;-55
2022/12/11 08:36:05;;;;;;;40.83;18.48;;;;;;;-4.37;100.00;96628.56;5041106;28;20127;-58
2022/12/11 08:38:33;;;;;;;30.88;15.98;;;;;;;-4.33;100.00;96625.41;5036977;28;20065;-56
2022/12/11 08:41:20;;;;;;;34.33;15.32;;;;;;;-4.29;100.00;96630.31;5034886;28;20117;-58
2022/12/11 08:43:48;;;;;;;30.27;14.38;;;;;;;-4.55;100.00;96637.59;5045700;28;20118;-59
2022/12/11 08:46:14;;;;;;;28.65;14.90;;;;;;;-4.50;100.00;96629.16;5044469;28;20124;-56
2022/12/11 08:48:42;;;;;;;29.52;14.10;;;;;;;-4.57;100.00;96639.59;5047216;28;20139;-57
2022/12/11 08:51:12;;;;;;;25.35;13.45;;;;;;;-4.49;100.00;96634.25;5045466;28;20215;-56
2022/12/11 08:53:38;;;;;;;26.63;13.15;;;;;;;-4.44;100.00;96636.38;5044680;28;20136;-57
2022/12/11 08:56:08;;;;;;;26.92;12.00;;;;;;;-4.41;100.00;96633.38;5045078;28;20053;-56
2022/12/11 08:58:35;;;;;;;26.35;11.48;;;;;;;-4.39;100.00;96633.22;5046165;28;20151;-56
2022/12/11 09:01:13;;;;;;;23.08;11.00;;;;;;;-4.44;100.00;96628.44;5046103;28;20051;-56
2022/12/11 09:03:40;;;;;;;23.02;10.80;;;;;;;-4.40;100.00;96629.75;5038523;28;20128;-55
2022/12/11 09:06:09;;;;;;;20.60;10.30;;;;;;;-4.31;100.00;96622.59;5041080;28;20103;-57
2022/12/11 09:08:36;;;;;;;20.50;10.57;;;;;;;-4.26;100.00;96628.16;5045741;28;20115;-57
2022/12/11 09:11:08;;;;;;;26.52;11.35;;;;;;;-4.14;100.00;96619.81;5047621;28;20115;-58
2022/12/11 09:13:36;;;;;;;25.45;11.48;;;;;;;-4.03;100.00;96621.22;5044908;28;20048;-57
2022/12/11 09:16:08;;;;;;;23.33;10.95;;;;;;;-4.03;100.00;96614.09;5046739;28;20398;-56
2022/12/11 09:18:36;;;;;;;21.88;10.18;;;;;;;-4.00;100.00;96607.63;5048030;28;20496;-55
2022/12/11 09:21:08;;;;;;;20.42;10.75;;;;;;;-3.85;100.00;96607.66;5052517;28;20119;-56
2022/12/11 09:23:35;;;;;;;23.13;11.32;;;;;;;-3.73;100.00;96603.59;5045162;28;20553;-57
2022/12/11 09:26:10;;;;;;;19.85;10.75;;;;;;;-3.59;100.00;96604.63;5039047;28;20123;-59
2022/12/11 09:28:38;;;;;;;19.00;9.85;;;;;;;-3.26;100.00;96606.09;5047274;28;20048;-56
2022/12/11 09:31:17;;;;;;;19.58;10.02;;;;;;;-3.10;98.26;96609.56;5046830;28;20467;-56
2022/12/11 09:33:45;;;;;;;17.73;9.55;;;;;;;-3.01;100.00;96606.66;5037162;28;20040;-57
2022/12/11 09:36:11;;;;;;;20.25;9.93;;;;;;;-3.13;99.63;96606.28;5044799;28;20037;-57
2022/12/11 09:38:38;;;;;;;23.98;12.02;;;;;;;-3.13;99.89;96611.56;5046780;28;20048;-55
2022/12/11 09:41:35;;;;;;;20.88;10.50;;;;;;;-2.91;100.00;96603.69;5044758;28;20472;-59
2022/12/11 09:44:19;;;;;;;23.15;11.15;;;;;;;-2.72;98.06;96596.19;5027267;28;20068;-57
2022/12/11 09:46:47;;;;;;;23.40;12.27;;;;;;;-2.49;97.49;96603.97;5027681;28;20041;-58
2022/12/11 09:49:26;;;;;;;21.48;11.85;;;;;;;-2.41;98.14;96603.03;5032405;28;21178;-58
2022/12/11 09:52:02;;;;;;;23.48;11.45;;;;;;;-2.57;98.86;96598.78;5047076;28;20079;-58
2022/12/11 09:54:29;;;;;;;17.23;9.35;;;;;;;-2.45;98.24;96591.16;5044942;28;20076;-55
2022/12/11 09:57:17;;;;;;;21.75;10.43;;;;;;;-2.03;97.95;96591.34;5045026;28;20508;-56
2022/12/11 09:59:59;;;;;;;20.05;8.82;;;;;;;-2.03;95.24;96591.34;5045119;28;20463;-55
2022/12/11 10:02:46;;;;;;;19.48;9.27;;;;;;;-2.07;95.52;96590.06;5042182;28;20051;-56
2022/12/11 10:05:50;;;;;;;18.88;9.18;;;;;;;-2.08;95.31;96588.44;5042678;28;20044;-57
2022/12/11 10:08:30;;;;;;;14.43;8.73;;;;;;;-2.17;95.34;96584.28;5043920;28;20053;-56
2022/12/11 10:11:15;;;;;;;17.52;9.23;;;;;;;-2.06;96.41;96581.13;5058392;28;20116;-56
2022/12/11 10:14:00;;;;;;;23.38;10.15;;;;;;;-1.88;96.03;96583.31;5026892;28;20144;-59
2022/12/11 10:16:43;;;;;;;19.38;9.27;;;;;;;-1.85;93.34;96574.97;5026869;28;20049;-57
2022/12/11 10:19:20;;;;;;;18.73;9.93;;;;;;;-1.59;92.03;96578.81;5034436;28;20049;-57
2022/12/11 10:21:49;;;;;;;18.15;9.63;;;;;;;-1.74;93.76;96575.44;5044389;28;20071;-55
2022/12/11 10:24:49;;;;;;;15.23;9.23;;;;;;;-1.89;94.50;96572.88;5046453;28;20044;-54
2022/12/11 10:27:38;;;;;;;22.52;10.38;;;;;;;-1.78;94.57;96569.69;5047026;28;20045;-57
2022/12/11 10:30:26;;;;;;;17.98;10.43;;;;;;;-1.61;95.37;96564.94;5046337;28;20564;-58
2022/12/11 10:33:10;;;;;;;17.98;9.90;;;;;;;-1.88;95.69;96564.72;5046612;28;20078;-58
2022/12/11 10:35:48;;;;;;;18.50;9.90;;;;;;;-1.92;97.06;96558.16;5046402;28;20041;-57
2022/12/11 10:38:25;;;;;;;19.02;9.88;;;;;;;-1.72;97.15;96560.97;5046767;28;20045;-57
2022/12/11 10:40:56;;;;;;;21.42;10.80;;;;;;;-1.78;95.17;96552.94;5045110;28;20047;-58
2022/12/11 10:43:47;;;;;;;22.27;11.35;;;;;;;-1.77;94.74;96554.63;5026516;28;20120;-55
2022/12/11 10:46:16;;;;;;;22.13;10.80;;;;;;;-1.88;96.29;96548.00;5026732;28;20132;-56
2022/12/11 10:48:54;;;;;;;20.35;11.10;;;;;;;-1.86;96.39;96548.63;5034819;28;20052;-58
2022/12/11 10:51:24;;;;;;;17.92;10.30;;;;;;;-1.81;95.95;96546.19;5024903;28;20076;-57
2022/12/11 10:53:54;;;;;;;18.85;10.73;;;;;;;-1.77;95.42;96538.69;5026367;28;20042;-56
2022/12/11 10:56:26;;;;;;;21.25;10.95;;;;;;;-1.72;94.93;96536.25;5025409;28;20045;-59
2022/12/11 10:58:55;;;;;;;22.90;10.20;;;;;;;-1.70;94.83;96529.75;5026184;28;20053;-57
2022/12/11 11:01:24;;;;;;;19.27;9.70;;;;;;;-1.71;95.13;96536.06;5025537;28;20493;-58
2022/12/11 11:04:12;;;;;;;18.95;9.73;;;;;;;-1.62;93.77;96538.56;5025936;28;20424;-59
2022/12/11 11:06:39;;;;;;;17.38;8.93;;;;;;;-1.45;93.31;96536.41;5026277;28;20060;-58
2022/12/11 11:09:34;;;;;;;20.05;9.63;;;;;;;-1.48;92.43;96528.84;5030107;28;20049;-59
2022/12/11 11:12:01;;;;;;;20.02;9.93;;;;;;;-1.44;92.20;96533.56;5025656;28;20042;-59
2022/12/11 11:14:33;;;;;;;18.33;10.10;;;;;;;-1.71;94.05;96524.63;5026206;28;20124;-57
2022/12/11 11:17:00;;;;;;;19.08;10.70;;;;;;;-1.66;94.00;96522.19;5025685;28;20045;-59
2022/12/11 11:19:31;;;;;;;23.30;10.68;;;;;;;-1.63;94.94;96524.47;5036273;28;20049;-57
2022/12/11 11:22:18;;;;;;;20.47;9.77;;;;;;;-1.54;94.39;96524.31;5045579;28;20076;-59
2022/12/11 11:24:57;;;;;;;18.45;9.98;;;;;;;-1.47;94.71;96526.00;5045599;28;20766;-58
2022/12/11 11:27:44;;;;;;;22.48;11.32;;;;;;;-1.41;94.68;96526.25;5046040;28;20740;-59
2022/12/11 11:30:21;;;;;;;19.45;11.07;;;;;;;-1.39;93.86;96521.53;5045518;28;20049;-58
2022/12/11 11:32:53;;;;;;;22.48;10.10;;;;;;;-1.55;93.38;96515.53;5045502;28;20128;-56
2022/12/11 11:35:25;;;;;;;22.55;10.73;;;;;;;-1.50;94.22;96517.59;5045945;28;20124;-54
2022/12/11 11:38:13;;;;;;;19.50;9.63;;;;;;;-1.55;94.86;96518.19;5046098;28;20049;-55
2022/12/11 11:41:03;;;;;;;18.65;10.27;;;;;;;-1.49;95.32;96517.41;5045167;28;20049;-57
2022/12/11 11:43:45;;;;;;;19.02;10.38;;;;;;;-1.29;93.01;96508.69;5046026;28;20041;-58